sensor_id;sensor_type;location;lat;lon;timestamp;P1;durP1;ratioP1;P2;durP2;ratioP2
58496;SDS011;44284;51.310;16.904;2023-05-20T00:01:11;31.73;;;22.80;;
58496;SDS011;44284;51.310;16.904;2023-05-20T00:03:38;28.60;;;22.25;;
58496;SDS011;44284;51.310;16.904;2023-05-20T00:06:04;32.85;;;23.38;;
58496;SDS011;44284;51.310;16.904;2023-05-20T00:08:30;34.90;;;23.40;;
58496;SDS011;44284;51.310;16.904;2023-05-20T00:10:56;32.10;;;22.65;;
58496;SDS011;44284;51.310;16.904;2023-05-20T00:13:22;38.70;;;23.95;;
58496;SDS011;44284;51.310;16.904;2023-05-20T00:15:48;33.30;;;24.10;;
58496;SDS011;44284;51.310;16.904;2023-05-20T00:18:14;35.75;;;23.95;;
58496;SDS011;44284;51.310;16.904;2023-05-20T00:20:40;31.85;;;22.67;;
58496;SDS011;44284;51.310;16.904;2023-05-20T00:23:06;30.85;;;22.98;;
58496;SDS011;44284;51.310;16.904;2023-05-20T00:25:32;31.40;;;23.45;;
58496;SDS011;44284;51.310;16.904;2023-05-20T00:27:59;36.85;;;23.85;;
58496;SDS011;44284;51.310;16.904;2023-05-20T00:30:25;31.17;;;23.83;;
58496;SDS011;44284;51.310;16.904;2023-05-20T00:32:51;33.58;;;23.90;;
58496;SDS011;44284;51.310;16.904;2023-05-20T00:35:17;36.58;;;24.45;;
58496;SDS011;44284;51.310;16.904;2023-05-20T00:37:43;29.63;;;23.42;;
58496;SDS011;44284;51.310;16.904;2023-05-20T00:40:09;32.42;;;23.40;;
58496;SDS011;44284;51.310;16.904;2023-05-20T00:42:35;33.28;;;23.77;;
58496;SDS011;44284;51.310;16.904;2023-05-20T00:45:01;36.72;;;25.50;;
58496;SDS011;44284;51.310;16.904;2023-05-20T00:47:28;31.98;;;23.92;;
58496;SDS011;44284;51.310;16.904;2023-05-20T00:49:55;34.55;;;24.63;;
58496;SDS011;44284;51.310;16.904;2023-05-20T00:52:21;35.00;;;24.55;;
58496;SDS011;44284;51.310;16.904;2023-05-20T00:54:48;36.92;;;25.25;;
58496;SDS011;44284;51.310;16.904;2023-05-20T00:57:15;34.42;;;24.58;;
58496;SDS011;44284;51.310;16.904;2023-05-20T00:59:41;38.47;;;25.88;;
58496;SDS011;44284;51.310;16.904;2023-05-20T01:02:07;36.88;;;25.38;;
58496;SDS011;44284;51.310;16.904;2023-05-20T01:04:34;40.45;;;25.58;;
58496;SDS011;44284;51.310;16.904;2023-05-20T01:07:01;38.58;;;26.92;;
58496;SDS011;44284;51.310;16.904;2023-05-20T01:09:31;38.58;;;25.63;;
58496;SDS011;44284;51.310;16.904;2023-05-20T01:14:28;39.17;;;26.50;;
58496;SDS011;44284;51.310;16.904;2023-05-20T01:16:55;39.53;;;27.67;;
58496;SDS011;44284;51.310;16.904;2023-05-20T01:19:26;39.17;;;27.00;;
58496;SDS011;44284;51.310;16.904;2023-05-20T01:21:58;41.20;;;28.13;;
58496;SDS011;44284;51.310;16.904;2023-05-20T01:24:25;40.78;;;28.52;;
58496;SDS011;44284;51.310;16.904;2023-05-20T01:26:51;40.08;;;27.98;;
58496;SDS011;44284;51.310;16.904;2023-05-20T01:29:17;40.60;;;26.77;;
58496;SDS011;44284;51.310;16.904;2023-05-20T01:31:43;41.92;;;27.08;;
58496;SDS011;44284;51.310;16.904;2023-05-20T01:34:11;44.75;;;29.27;;
58496;SDS011;44284;51.310;16.904;2023-05-20T01:36:38;41.65;;;27.63;;
58496;SDS011;44284;51.310;16.904;2023-05-20T01:39:05;46.58;;;29.38;;
58496;SDS011;44284;51.310;16.904;2023-05-20T01:41:31;42.92;;;28.05;;
58496;SDS011;44284;51.310;16.904;2023-05-20T01:43:58;43.55;;;28.65;;
58496;SDS011;44284;51.310;16.904;2023-05-20T01:46:24;44.58;;;28.65;;
58496;SDS011;44284;51.310;16.904;2023-05-20T01:48:51;46.80;;;29.20;;
58496;SDS011;44284;51.310;16.904;2023-05-20T01:51:17;47.88;;;29.50;;
58496;SDS011;44284;51.310;16.904;2023-05-20T01:53:43;53.47;;;31.45;;
58496;SDS011;44284;51.310;16.904;2023-05-20T01:56:09;49.03;;;29.23;;
58496;SDS011;44284;51.310;16.904;2023-05-20T01:58:35;48.33;;;30.38;;
58496;SDS011;44284;51.310;16.904;2023-05-20T02:01:01;49.83;;;31.42;;
58496;SDS011;44284;51.310;16.904;2023-05-20T02:03:27;49.15;;;29.92;;
58496;SDS011;44284;51.310;16.904;2023-05-20T02:05:53;48.65;;;29.95;;
58496;SDS011;44284;51.310;16.904;2023-05-20T02:08:19;48.72;;;30.02;;
58496;SDS011;44284;51.310;16.904;2023-05-20T02:10:47;49.88;;;30.50;;
58496;SDS011;44284;51.310;16.904;2023-05-20T02:13:13;51.70;;;31.45;;
58496;SDS011;44284;51.310;16.904;2023-05-20T02:15:40;48.47;;;31.00;;
58496;SDS011;44284;51.310;16.904;2023-05-20T02:18:06;50.90;;;29.92;;
58496;SDS011;44284;51.310;16.904;2023-05-20T02:20:35;49.92;;;29.65;;
58496;SDS011;44284;51.310;16.904;2023-05-20T02:23:02;49.05;;;31.42;;
58496;SDS011;44284;51.310;16.904;2023-05-20T02:25:32;50.72;;;30.40;;
58496;SDS011;44284;51.310;16.904;2023-05-20T02:27:58;51.63;;;31.30;;
58496;SDS011;44284;51.310;16.904;2023-05-20T02:30:25;49.40;;;30.55;;
58496;SDS011;44284;51.310;16.904;2023-05-20T02:32:51;51.10;;;30.48;;
58496;SDS011;44284;51.310;16.904;2023-05-20T02:35:17;51.67;;;31.02;;
58496;SDS011;44284;51.310;16.904;2023-05-20T02:37:44;49.50;;;30.50;;
58496;SDS011;44284;51.310;16.904;2023-05-20T02:40:10;50.22;;;29.02;;
58496;SDS011;44284;51.310;16.904;2023-05-20T02:42:36;47.20;;;28.80;;
58496;SDS011;44284;51.310;16.904;2023-05-20T02:45:02;46.33;;;28.05;;
58496;SDS011;44284;51.310;16.904;2023-05-20T02:47:29;46.20;;;29.00;;
58496;SDS011;44284;51.310;16.904;2023-05-20T02:49:55;46.45;;;27.95;;
58496;SDS011;44284;51.310;16.904;2023-05-20T02:52:21;46.50;;;27.42;;
58496;SDS011;44284;51.310;16.904;2023-05-20T02:54:47;45.80;;;28.30;;
58496;SDS011;44284;51.310;16.904;2023-05-20T02:57:13;45.33;;;28.20;;
58496;SDS011;44284;51.310;16.904;2023-05-20T02:59:40;49.15;;;28.25;;
58496;SDS011;44284;51.310;16.904;2023-05-20T03:02:06;47.17;;;27.88;;
58496;SDS011;44284;51.310;16.904;2023-05-20T03:04:32;43.33;;;26.63;;
58496;SDS011;44284;51.310;16.904;2023-05-20T03:07:02;43.70;;;27.27;;
58496;SDS011;44284;51.310;16.904;2023-05-20T03:09:29;44.03;;;26.40;;
58496;SDS011;44284;51.310;16.904;2023-05-20T03:11:55;43.50;;;25.85;;
58496;SDS011;44284;51.310;16.904;2023-05-20T03:14:21;43.00;;;25.52;;
58496;SDS011;44284;51.310;16.904;2023-05-20T03:16:47;44.25;;;25.50;;
58496;SDS011;44284;51.310;16.904;2023-05-20T03:19:13;36.58;;;24.08;;
58496;SDS011;44284;51.310;16.904;2023-05-20T03:21:40;37.92;;;25.15;;
58496;SDS011;44284;51.310;16.904;2023-05-20T03:24:07;40.60;;;25.77;;
58496;SDS011;44284;51.310;16.904;2023-05-20T03:26:34;36.63;;;23.50;;
58496;SDS011;44284;51.310;16.904;2023-05-20T03:29:01;39.47;;;24.13;;
58496;SDS011;44284;51.310;16.904;2023-05-20T03:31:27;39.85;;;23.75;;
58496;SDS011;44284;51.310;16.904;2023-05-20T03:33:54;39.72;;;24.65;;
58496;SDS011;44284;51.310;16.904;2023-05-20T03:36:20;40.78;;;24.13;;
58496;SDS011;44284;51.310;16.904;2023-05-20T03:38:46;37.58;;;23.35;;
58496;SDS011;44284;51.310;16.904;2023-05-20T03:41:12;38.10;;;23.83;;
58496;SDS011;44284;51.310;16.904;2023-05-20T03:43:38;35.53;;;21.95;;
58496;SDS011;44284;51.310;16.904;2023-05-20T03:46:04;33.25;;;21.50;;
58496;SDS011;44284;51.310;16.904;2023-05-20T03:48:30;35.50;;;22.33;;
58496;SDS011;44284;51.310;16.904;2023-05-20T03:50:56;35.88;;;22.92;;
58496;SDS011;44284;51.310;16.904;2023-05-20T03:53:22;32.47;;;21.98;;
58496;SDS011;44284;51.310;16.904;2023-05-20T03:55:49;34.45;;;20.95;;
58496;SDS011;44284;51.310;16.904;2023-05-20T03:58:15;35.05;;;21.33;;
58496;SDS011;44284;51.310;16.904;2023-05-20T04:00:41;34.95;;;21.42;;
58496;SDS011;44284;51.310;16.904;2023-05-20T04:03:07;30.80;;;19.75;;
58496;SDS011;44284;51.310;16.904;2023-05-20T04:05:34;34.00;;;20.13;;
58496;SDS011;44284;51.310;16.904;2023-05-20T04:08:01;32.83;;;20.13;;
58496;SDS011;44284;51.310;16.904;2023-05-20T04:10:28;33.42;;;20.42;;
58496;SDS011;44284;51.310;16.904;2023-05-20T04:12:56;30.50;;;20.40;;
58496;SDS011;44284;51.310;16.904;2023-05-20T04:15:22;29.23;;;19.63;;
58496;SDS011;44284;51.310;16.904;2023-05-20T04:17:49;31.10;;;20.20;;
58496;SDS011;44284;51.310;16.904;2023-05-20T04:20:16;29.08;;;19.63;;
58496;SDS011;44284;51.310;16.904;2023-05-20T04:22:42;32.83;;;19.27;;
58496;SDS011;44284;51.310;16.904;2023-05-20T04:25:08;32.92;;;19.60;;
58496;SDS011;44284;51.310;16.904;2023-05-20T04:27:35;30.65;;;19.77;;
58496;SDS011;44284;51.310;16.904;2023-05-20T04:30:02;32.97;;;20.20;;
58496;SDS011;44284;51.310;16.904;2023-05-20T04:32:28;32.65;;;20.52;;
58496;SDS011;44284;51.310;16.904;2023-05-20T04:34:54;32.85;;;19.63;;
58496;SDS011;44284;51.310;16.904;2023-05-20T04:37:21;37.38;;;20.85;;
58496;SDS011;44284;51.310;16.904;2023-05-20T04:39:47;32.00;;;20.40;;
58496;SDS011;44284;51.310;16.904;2023-05-20T04:42:15;30.85;;;19.52;;
58496;SDS011;44284;51.310;16.904;2023-05-20T04:44:45;34.20;;;20.35;;
58496;SDS011;44284;51.310;16.904;2023-05-20T04:47:12;31.80;;;20.58;;
58496;SDS011;44284;51.310;16.904;2023-05-20T04:49:38;34.97;;;20.17;;
58496;SDS011;44284;51.310;16.904;2023-05-20T04:52:04;33.28;;;21.00;;
58496;SDS011;44284;51.310;16.904;2023-05-20T04:54:31;33.45;;;21.17;;
58496;SDS011;44284;51.310;16.904;2023-05-20T04:56:57;32.85;;;20.65;;
58496;SDS011;44284;51.310;16.904;2023-05-20T04:59:24;33.90;;;20.90;;
58496;SDS011;44284;51.310;16.904;2023-05-20T05:01:50;31.48;;;20.73;;
58496;SDS011;44284;51.310;16.904;2023-05-20T05:04:16;30.95;;;19.67;;
58496;SDS011;44284;51.310;16.904;2023-05-20T05:06:42;34.92;;;21.00;;
58496;SDS011;44284;51.310;16.904;2023-05-20T05:09:08;29.70;;;20.75;;
58496;SDS011;44284;51.310;16.904;2023-05-20T05:11:34;31.30;;;20.73;;
58496;SDS011;44284;51.310;16.904;2023-05-20T05:14:00;35.70;;;21.70;;
58496;SDS011;44284;51.310;16.904;2023-05-20T05:16:26;34.85;;;21.55;;
58496;SDS011;44284;51.310;16.904;2023-05-20T05:18:52;33.03;;;20.60;;
58496;SDS011;44284;51.310;16.904;2023-05-20T05:21:18;34.47;;;21.13;;
58496;SDS011;44284;51.310;16.904;2023-05-20T05:23:44;37.50;;;22.50;;
58496;SDS011;44284;51.310;16.904;2023-05-20T05:26:10;36.17;;;23.52;;
58496;SDS011;44284;51.310;16.904;2023-05-20T05:28:36;37.45;;;22.92;;
58496;SDS011;44284;51.310;16.904;2023-05-20T05:31:02;37.47;;;22.83;;
58496;SDS011;44284;51.310;16.904;2023-05-20T05:33:30;35.55;;;23.40;;
58496;SDS011;44284;51.310;16.904;2023-05-20T05:35:56;35.63;;;22.83;;
58496;SDS011;44284;51.310;16.904;2023-05-20T05:38:23;36.95;;;22.83;;
58496;SDS011;44284;51.310;16.904;2023-05-20T05:40:49;34.97;;;22.90;;
58496;SDS011;44284;51.310;16.904;2023-05-20T05:43:15;38.80;;;23.58;;
58496;SDS011;44284;51.310;16.904;2023-05-20T05:45:41;37.17;;;24.33;;
58496;SDS011;44284;51.310;16.904;2023-05-20T05:48:07;40.03;;;25.17;;
58496;SDS011;44284;51.310;16.904;2023-05-20T05:50:34;37.83;;;24.48;;
58496;SDS011;44284;51.310;16.904;2023-05-20T05:53:00;39.53;;;25.08;;
58496;SDS011;44284;51.310;16.904;2023-05-20T05:55:26;39.78;;;23.88;;
58496;SDS011;44284;51.310;16.904;2023-05-20T05:57:52;40.13;;;24.77;;
58496;SDS011;44284;51.310;16.904;2023-05-20T06:00:18;41.30;;;26.00;;
58496;SDS011;44284;51.310;16.904;2023-05-20T06:02:45;41.38;;;25.15;;
58496;SDS011;44284;51.310;16.904;2023-05-20T06:05:11;38.17;;;24.05;;
58496;SDS011;44284;51.310;16.904;2023-05-20T06:07:37;37.15;;;24.23;;
58496;SDS011;44284;51.310;16.904;2023-05-20T06:10:03;40.38;;;25.15;;
58496;SDS011;44284;51.310;16.904;2023-05-20T06:12:30;39.78;;;24.67;;
58496;SDS011;44284;51.310;16.904;2023-05-20T06:14:56;40.15;;;25.17;;
58496;SDS011;44284;51.310;16.904;2023-05-20T06:17:22;38.50;;;23.95;;
58496;SDS011;44284;51.310;16.904;2023-05-20T06:19:48;36.22;;;23.25;;
58496;SDS011;44284;51.310;16.904;2023-05-20T06:22:14;37.47;;;23.90;;
58496;SDS011;44284;51.310;16.904;2023-05-20T06:24:40;40.17;;;24.52;;
58496;SDS011;44284;51.310;16.904;2023-05-20T06:27:06;41.45;;;25.45;;
58496;SDS011;44284;51.310;16.904;2023-05-20T06:29:32;38.25;;;23.55;;
58496;SDS011;44284;51.310;16.904;2023-05-20T06:31:58;38.47;;;23.08;;
58496;SDS011;44284;51.310;16.904;2023-05-20T06:34:24;37.55;;;24.38;;
58496;SDS011;44284;51.310;16.904;2023-05-20T06:36:51;40.40;;;23.80;;
58496;SDS011;44284;51.310;16.904;2023-05-20T06:39:18;40.10;;;25.13;;
58496;SDS011;44284;51.310;16.904;2023-05-20T06:41:44;39.10;;;24.05;;
58496;SDS011;44284;51.310;16.904;2023-05-20T06:44:10;36.97;;;23.98;;
58496;SDS011;44284;51.310;16.904;2023-05-20T06:46:36;40.85;;;23.67;;
58496;SDS011;44284;51.310;16.904;2023-05-20T06:49:02;37.20;;;24.30;;
58496;SDS011;44284;51.310;16.904;2023-05-20T06:51:28;36.28;;;24.35;;
58496;SDS011;44284;51.310;16.904;2023-05-20T06:53:54;38.15;;;26.08;;
58496;SDS011;44284;51.310;16.904;2023-05-20T06:56:20;39.45;;;24.35;;
58496;SDS011;44284;51.310;16.904;2023-05-20T06:58:46;39.92;;;25.77;;
58496;SDS011;44284;51.310;16.904;2023-05-20T07:01:12;41.30;;;26.27;;
58496;SDS011;44284;51.310;16.904;2023-05-20T07:03:38;40.72;;;25.55;;
58496;SDS011;44284;51.310;16.904;2023-05-20T07:06:05;43.83;;;26.40;;
58496;SDS011;44284;51.310;16.904;2023-05-20T07:08:31;39.13;;;26.15;;
58496;SDS011;44284;51.310;16.904;2023-05-20T07:10:57;41.38;;;26.40;;
58496;SDS011;44284;51.310;16.904;2023-05-20T07:13:23;41.70;;;27.02;;
58496;SDS011;44284;51.310;16.904;2023-05-20T07:15:50;42.08;;;26.92;;
58496;SDS011;44284;51.310;16.904;2023-05-20T07:18:16;43.85;;;26.60;;
58496;SDS011;44284;51.310;16.904;2023-05-20T07:20:42;43.17;;;27.25;;
58496;SDS011;44284;51.310;16.904;2023-05-20T07:23:09;45.58;;;28.40;;
58496;SDS011;44284;51.310;16.904;2023-05-20T07:25:35;43.92;;;27.35;;
58496;SDS011;44284;51.310;16.904;2023-05-20T07:28:01;41.55;;;26.90;;
58496;SDS011;44284;51.310;16.904;2023-05-20T07:30:27;42.10;;;27.27;;
58496;SDS011;44284;51.310;16.904;2023-05-20T07:32:53;43.03;;;28.40;;
58496;SDS011;44284;51.310;16.904;2023-05-20T07:35:19;42.08;;;26.45;;
58496;SDS011;44284;51.310;16.904;2023-05-20T07:37:45;44.28;;;28.92;;
58496;SDS011;44284;51.310;16.904;2023-05-20T07:40:11;47.45;;;28.25;;
58496;SDS011;44284;51.310;16.904;2023-05-20T07:42:38;45.00;;;27.08;;
58496;SDS011;44284;51.310;16.904;2023-05-20T07:45:04;44.65;;;26.90;;
58496;SDS011;44284;51.310;16.904;2023-05-20T07:47:31;43.28;;;27.60;;
58496;SDS011;44284;51.310;16.904;2023-05-20T07:49:57;42.58;;;27.27;;
58496;SDS011;44284;51.310;16.904;2023-05-20T07:52:23;44.50;;;27.60;;
58496;SDS011;44284;51.310;16.904;2023-05-20T07:54:49;45.13;;;26.63;;
58496;SDS011;44284;51.310;16.904;2023-05-20T07:57:15;40.42;;;25.98;;
58496;SDS011;44284;51.310;16.904;2023-05-20T07:59:41;39.15;;;24.38;;
58496;SDS011;44284;51.310;16.904;2023-05-20T08:02:07;43.83;;;25.48;;
58496;SDS011;44284;51.310;16.904;2023-05-20T08:04:34;34.42;;;21.55;;
58496;SDS011;44284;51.310;16.904;2023-05-20T08:07:00;31.92;;;20.95;;
58496;SDS011;44284;51.310;16.904;2023-05-20T08:09:26;32.65;;;20.45;;
58496;SDS011;44284;51.310;16.904;2023-05-20T08:11:53;28.70;;;18.83;;
58496;SDS011;44284;51.310;16.904;2023-05-20T08:14:19;27.38;;;17.77;;
58496;SDS011;44284;51.310;16.904;2023-05-20T08:16:45;25.92;;;17.02;;
58496;SDS011;44284;51.310;16.904;2023-05-20T08:19:11;25.90;;;17.45;;
58496;SDS011;44284;51.310;16.904;2023-05-20T08:21:37;29.15;;;18.63;;
58496;SDS011;44284;51.310;16.904;2023-05-20T08:24:03;27.77;;;18.60;;
58496;SDS011;44284;51.310;16.904;2023-05-20T08:26:29;25.73;;;16.90;;
58496;SDS011;44284;51.310;16.904;2023-05-20T08:28:55;24.42;;;17.40;;
58496;SDS011;44284;51.310;16.904;2023-05-20T08:31:21;23.30;;;16.65;;
58496;SDS011;44284;51.310;16.904;2023-05-20T08:33:48;25.40;;;16.67;;
58496;SDS011;44284;51.310;16.904;2023-05-20T08:36:14;24.92;;;17.40;;
58496;SDS011;44284;51.310;16.904;2023-05-20T08:38:40;24.50;;;16.45;;
58496;SDS011;44284;51.310;16.904;2023-05-20T08:41:06;25.63;;;17.67;;
58496;SDS011;44284;51.310;16.904;2023-05-20T08:43:33;26.63;;;17.02;;
58496;SDS011;44284;51.310;16.904;2023-05-20T08:45:59;22.60;;;15.90;;
58496;SDS011;44284;51.310;16.904;2023-05-20T08:48:28;22.35;;;15.98;;
58496;SDS011;44284;51.310;16.904;2023-05-20T08:50:55;23.13;;;16.23;;
58496;SDS011;44284;51.310;16.904;2023-05-20T08:53:22;23.10;;;16.10;;
58496;SDS011;44284;51.310;16.904;2023-05-20T08:55:52;24.15;;;16.23;;
58496;SDS011;44284;51.310;16.904;2023-05-20T08:58:19;23.52;;;16.80;;
58496;SDS011;44284;51.310;16.904;2023-05-20T09:00:45;22.73;;;16.92;;
58496;SDS011;44284;51.310;16.904;2023-05-20T09:03:11;22.85;;;15.38;;
58496;SDS011;44284;51.310;16.904;2023-05-20T09:05:37;22.95;;;16.70;;
58496;SDS011;44284;51.310;16.904;2023-05-20T09:08:07;21.98;;;15.90;;
58496;SDS011;44284;51.310;16.904;2023-05-20T09:10:34;22.52;;;15.60;;
58496;SDS011;44284;51.310;16.904;2023-05-20T09:13:01;21.05;;;15.07;;
58496;SDS011;44284;51.310;16.904;2023-05-20T09:15:28;22.90;;;15.60;;
58496;SDS011;44284;51.310;16.904;2023-05-20T09:17:54;22.02;;;16.23;;
58496;SDS011;44284;51.310;16.904;2023-05-20T09:20:21;23.85;;;15.85;;
58496;SDS011;44284;51.310;16.904;2023-05-20T09:22:49;22.20;;;15.65;;
58496;SDS011;44284;51.310;16.904;2023-05-20T09:25:20;18.90;;;13.63;;
58496;SDS011;44284;51.310;16.904;2023-05-20T09:27:47;20.25;;;14.85;;
58496;SDS011;44284;51.310;16.904;2023-05-20T09:30:13;18.90;;;14.65;;
58496;SDS011;44284;51.310;16.904;2023-05-20T09:32:39;18.75;;;14.73;;
58496;SDS011;44284;51.310;16.904;2023-05-20T09:35:05;17.88;;;13.55;;
58496;SDS011;44284;51.310;16.904;2023-05-20T09:37:32;20.27;;;13.45;;
58496;SDS011;44284;51.310;16.904;2023-05-20T09:40:02;17.58;;;13.02;;
58496;SDS011;44284;51.310;16.904;2023-05-20T09:42:40;17.33;;;13.45;;
58496;SDS011;44284;51.310;16.904;2023-05-20T09:45:07;16.63;;;12.45;;
58496;SDS011;44284;51.310;16.904;2023-05-20T09:47:34;17.70;;;13.15;;
58496;SDS011;44284;51.310;16.904;2023-05-20T09:50:01;18.08;;;13.02;;
58496;SDS011;44284;51.310;16.904;2023-05-20T09:52:28;17.13;;;13.02;;
58496;SDS011;44284;51.310;16.904;2023-05-20T09:54:54;18.17;;;12.95;;
58496;SDS011;44284;51.310;16.904;2023-05-20T09:57:21;19.05;;;13.18;;
58496;SDS011;44284;51.310;16.904;2023-05-20T09:59:47;18.52;;;13.73;;
58496;SDS011;44284;51.310;16.904;2023-05-20T10:02:15;18.35;;;13.32;;
58496;SDS011;44284;51.310;16.904;2023-05-20T10:04:43;18.95;;;13.27;;
58496;SDS011;44284;51.310;16.904;2023-05-20T10:07:24;18.08;;;13.07;;
58496;SDS011;44284;51.310;16.904;2023-05-20T10:09:58;20.17;;;13.68;;
58496;SDS011;44284;51.310;16.904;2023-05-20T10:17:29;18.13;;;13.45;;
58496;SDS011;44284;51.310;16.904;2023-05-20T10:19:59;17.80;;;13.55;;
58496;SDS011;44284;51.310;16.904;2023-05-20T10:22:26;15.10;;;11.75;;
58496;SDS011;44284;51.310;16.904;2023-05-20T10:24:59;18.80;;;12.73;;
58496;SDS011;44284;51.310;16.904;2023-05-20T10:27:25;15.80;;;12.07;;
58496;SDS011;44284;51.310;16.904;2023-05-20T10:29:54;16.60;;;12.95;;
58496;SDS011;44284;51.310;16.904;2023-05-20T10:32:31;15.70;;;11.82;;
58496;SDS011;44284;51.310;16.904;2023-05-20T10:34:59;17.27;;;12.32;;
58496;SDS011;44284;51.310;16.904;2023-05-20T10:37:26;18.08;;;12.57;;
58496;SDS011;44284;51.310;16.904;2023-05-20T10:40:01;18.42;;;12.90;;
58496;SDS011;44284;51.310;16.904;2023-05-20T10:42:28;17.30;;;12.93;;
58496;SDS011;44284;51.310;16.904;2023-05-20T10:44:54;16.52;;;12.70;;
58496;SDS011;44284;51.310;16.904;2023-05-20T10:47:20;16.00;;;11.73;;
58496;SDS011;44284;51.310;16.904;2023-05-20T10:49:46;18.23;;;13.52;;
58496;SDS011;44284;51.310;16.904;2023-05-20T10:52:12;17.50;;;13.65;;
58496;SDS011;44284;51.310;16.904;2023-05-20T10:54:46;16.10;;;12.82;;
58496;SDS011;44284;51.310;16.904;2023-05-20T10:57:12;17.52;;;14.35;;
58496;SDS011;44284;51.310;16.904;2023-05-20T10:59:39;19.38;;;13.40;;
58496;SDS011;44284;51.310;16.904;2023-05-20T11:02:06;18.10;;;13.60;;
58496;SDS011;44284;51.310;16.904;2023-05-20T11:04:32;20.75;;;15.20;;
58496;SDS011;44284;51.310;16.904;2023-05-20T11:06:58;19.85;;;15.02;;
58496;SDS011;44284;51.310;16.904;2023-05-20T11:09:25;19.50;;;13.63;;
58496;SDS011;44284;51.310;16.904;2023-05-20T11:11:52;19.30;;;14.32;;
58496;SDS011;44284;51.310;16.904;2023-05-20T11:14:18;19.98;;;14.48;;
58496;SDS011;44284;51.310;16.904;2023-05-20T11:16:44;19.95;;;15.00;;
58496;SDS011;44284;51.310;16.904;2023-05-20T11:19:14;19.75;;;14.35;;
58496;SDS011;44284;51.310;16.904;2023-05-20T11:21:46;21.02;;;14.43;;
58496;SDS011;44284;51.310;16.904;2023-05-20T11:24:13;21.08;;;15.88;;
58496;SDS011;44284;51.310;16.904;2023-05-20T11:26:40;18.42;;;14.57;;
58496;SDS011;44284;51.310;16.904;2023-05-20T11:29:06;18.85;;;14.82;;
58496;SDS011;44284;51.310;16.904;2023-05-20T11:31:32;21.02;;;15.68;;
58496;SDS011;44284;51.310;16.904;2023-05-20T11:33:58;21.30;;;15.43;;
58496;SDS011;44284;51.310;16.904;2023-05-20T11:36:28;21.40;;;15.45;;
58496;SDS011;44284;51.310;16.904;2023-05-20T11:38:58;20.35;;;14.63;;
58496;SDS011;44284;51.310;16.904;2023-05-20T11:41:25;21.60;;;16.08;;
58496;SDS011;44284;51.310;16.904;2023-05-20T11:43:57;19.73;;;14.73;;
58496;SDS011;44284;51.310;16.904;2023-05-20T11:46:24;23.02;;;15.85;;
58496;SDS011;44284;51.310;16.904;2023-05-20T11:48:53;20.50;;;15.00;;
58496;SDS011;44284;51.310;16.904;2023-05-20T11:51:23;20.92;;;15.93;;
58496;SDS011;44284;51.310;16.904;2023-05-20T11:53:49;20.88;;;15.93;;
58496;SDS011;44284;51.310;16.904;2023-05-20T11:56:15;20.35;;;16.13;;
58496;SDS011;44284;51.310;16.904;2023-05-20T11:58:42;20.55;;;14.80;;
58496;SDS011;44284;51.310;16.904;2023-05-20T12:01:09;21.20;;;15.85;;
58496;SDS011;44284;51.310;16.904;2023-05-20T12:03:36;21.50;;;15.15;;
58496;SDS011;44284;51.310;16.904;2023-05-20T12:06:02;23.15;;;15.52;;
58496;SDS011;44284;51.310;16.904;2023-05-20T12:08:28;21.35;;;15.68;;
58496;SDS011;44284;51.310;16.904;2023-05-20T12:10:55;20.40;;;16.10;;
58496;SDS011;44284;51.310;16.904;2023-05-20T12:13:21;19.27;;;15.23;;
58496;SDS011;44284;51.310;16.904;2023-05-20T12:15:47;21.65;;;15.38;;
58496;SDS011;44284;51.310;16.904;2023-05-20T12:18:13;17.77;;;14.30;;
58496;SDS011;44284;51.310;16.904;2023-05-20T12:20:41;20.50;;;14.20;;
58496;SDS011;44284;51.310;16.904;2023-05-20T12:23:07;18.42;;;13.52;;
58496;SDS011;44284;51.310;16.904;2023-05-20T12:25:33;17.88;;;14.50;;
58496;SDS011;44284;51.310;16.904;2023-05-20T12:28:00;20.20;;;14.20;;
58496;SDS011;44284;51.310;16.904;2023-05-20T12:30:26;18.73;;;14.10;;
58496;SDS011;44284;51.310;16.904;2023-05-20T12:32:52;16.35;;;13.68;;
58496;SDS011;44284;51.310;16.904;2023-05-20T12:35:23;17.48;;;13.60;;
58496;SDS011;44284;51.310;16.904;2023-05-20T12:37:50;16.70;;;12.85;;
58496;SDS011;44284;51.310;16.904;2023-05-20T12:40:24;20.40;;;14.10;;
58496;SDS011;44284;51.310;16.904;2023-05-20T12:42:53;19.77;;;15.00;;
58496;SDS011;44284;51.310;16.904;2023-05-20T12:45:22;18.00;;;14.55;;
58496;SDS011;44284;51.310;16.904;2023-05-20T12:47:48;18.85;;;15.20;;
58496;SDS011;44284;51.310;16.904;2023-05-20T12:50:14;20.73;;;14.65;;
58496;SDS011;44284;51.310;16.904;2023-05-20T12:52:40;18.70;;;14.40;;
58496;SDS011;44284;51.310;16.904;2023-05-20T12:55:06;19.60;;;15.50;;
58496;SDS011;44284;51.310;16.904;2023-05-20T12:57:38;18.98;;;14.70;;
58496;SDS011;44284;51.310;16.904;2023-05-20T13:00:04;20.13;;;15.02;;
58496;SDS011;44284;51.310;16.904;2023-05-20T13:02:30;19.35;;;15.52;;
58496;SDS011;44284;51.310;16.904;2023-05-20T13:04:56;18.33;;;15.40;;
58496;SDS011;44284;51.310;16.904;2023-05-20T13:07:22;20.25;;;16.15;;
58496;SDS011;44284;51.310;16.904;2023-05-20T13:09:51;22.85;;;16.25;;
58496;SDS011;44284;51.310;16.904;2023-05-20T13:12:17;19.30;;;15.73;;
58496;SDS011;44284;51.310;16.904;2023-05-20T13:14:43;19.67;;;15.10;;
58496;SDS011;44284;51.310;16.904;2023-05-20T13:17:10;20.30;;;15.90;;
58496;SDS011;44284;51.310;16.904;2023-05-20T13:19:36;19.00;;;15.88;;
58496;SDS011;44284;51.310;16.904;2023-05-20T13:22:03;20.48;;;15.50;;
58496;SDS011;44284;51.310;16.904;2023-05-20T13:24:30;20.65;;;15.82;;
58496;SDS011;44284;51.310;16.904;2023-05-20T13:26:56;20.70;;;15.20;;
58496;SDS011;44284;51.310;16.904;2023-05-20T13:29:22;21.98;;;16.67;;
58496;SDS011;44284;51.310;16.904;2023-05-20T13:31:49;20.13;;;15.75;;
58496;SDS011;44284;51.310;16.904;2023-05-20T13:34:15;18.85;;;15.70;;
58496;SDS011;44284;51.310;16.904;2023-05-20T13:36:41;20.00;;;15.82;;
58496;SDS011;44284;51.310;16.904;2023-05-20T13:39:07;20.10;;;17.08;;
58496;SDS011;44284;51.310;16.904;2023-05-20T13:41:33;19.55;;;16.40;;
58496;SDS011;44284;51.310;16.904;2023-05-20T13:43:59;21.17;;;16.70;;
58496;SDS011;44284;51.310;16.904;2023-05-20T13:46:25;19.58;;;16.55;;
58496;SDS011;44284;51.310;16.904;2023-05-20T13:48:51;21.67;;;17.67;;
58496;SDS011;44284;51.310;16.904;2023-05-20T13:51:17;22.23;;;18.10;;
58496;SDS011;44284;51.310;16.904;2023-05-20T13:53:43;23.05;;;17.75;;
58496;SDS011;44284;51.310;16.904;2023-05-20T13:56:09;21.13;;;17.20;;
58496;SDS011;44284;51.310;16.904;2023-05-20T13:58:35;22.35;;;17.38;;
58496;SDS011;44284;51.310;16.904;2023-05-20T14:01:02;22.17;;;18.20;;
58496;SDS011;44284;51.310;16.904;2023-05-20T14:03:29;21.42;;;16.60;;
58496;SDS011;44284;51.310;16.904;2023-05-20T14:05:57;21.35;;;17.27;;
58496;SDS011;44284;51.310;16.904;2023-05-20T14:08:23;23.58;;;18.77;;
58496;SDS011;44284;51.310;16.904;2023-05-20T14:10:49;22.20;;;17.20;;
58496;SDS011;44284;51.310;16.904;2023-05-20T14:13:19;22.75;;;18.70;;